sensor_id;sensor_type;location;lat;lon;timestamp;P1;durP1;ratioP1;P2;durP2;ratioP2
77870;SDS011;67067;46.850;7.578;2023-05-07T00:01:27;5.65;;;3.28;;
77870;SDS011;67067;46.850;7.578;2023-05-07T00:03:30;5.55;;;3.42;;
77870;SDS011;67067;46.850;7.578;2023-05-07T00:04:32;4.45;;;3.35;;
77870;SDS011;67067;46.850;7.578;2023-05-07T00:05:38;3.28;;;2.88;;
77870;SDS011;67067;46.850;7.578;2023-05-07T00:06:40;4.32;;;3.25;;
77870;SDS011;67067;46.850;7.578;2023-05-07T00:08:43;5.85;;;3.25;;
77870;SDS011;67067;46.850;7.578;2023-05-07T00:10:47;5.65;;;3.17;;
77870;SDS011;67067;46.850;7.578;2023-05-07T00:11:49;4.05;;;2.85;;
77870;SDS011;67067;46.850;7.578;2023-05-07T00:12:52;8.50;;;3.53;;
77870;SDS011;67067;46.850;7.578;2023-05-07T00:14:55;4.43;;;3.45;;
77870;SDS011;67067;46.850;7.578;2023-05-07T00:15:57;5.15;;;3.65;;
77870;SDS011;67067;46.850;7.578;2023-05-07T00:17:01;6.72;;;3.60;;
77870;SDS011;67067;46.850;7.578;2023-05-07T00:18:03;7.45;;;4.13;;
77870;SDS011;67067;46.850;7.578;2023-05-07T00:20:07;14.02;;;6.80;;
77870;SDS011;67067;46.850;7.578;2023-05-07T00:21:09;27.70;;;14.52;;
77870;SDS011;67067;46.850;7.578;2023-05-07T00:22:10;42.53;;;24.92;;
77870;SDS011;67067;46.850;7.578;2023-05-07T00:23:13;106.80;;;65.65;;
77870;SDS011;67067;46.850;7.578;2023-05-07T00:24:15;167.98;;;94.00;;
77870;SDS011;67067;46.850;7.578;2023-05-07T00:25:16;71.60;;;41.55;;
77870;SDS011;67067;46.850;7.578;2023-05-07T00:26:20;45.20;;;25.88;;
77870;SDS011;67067;46.850;7.578;2023-05-07T00:27:25;41.17;;;21.05;;
77870;SDS011;67067;46.850;7.578;2023-05-07T00:28:31;38.78;;;18.98;;
77870;SDS011;67067;46.850;7.578;2023-05-07T00:29:32;35.97;;;17.73;;
77870;SDS011;67067;46.850;7.578;2023-05-07T00:30:35;21.42;;;9.38;;
77870;SDS011;67067;46.850;7.578;2023-05-07T00:31:37;17.70;;;6.85;;
77870;SDS011;67067;46.850;7.578;2023-05-07T00:33:40;8.70;;;4.70;;
77870;SDS011;67067;46.850;7.578;2023-05-07T00:34:44;6.80;;;3.60;;
77870;SDS011;67067;46.850;7.578;2023-05-07T00:36:48;4.00;;;3.33;;
77870;SDS011;67067;46.850;7.578;2023-05-07T00:37:50;5.95;;;3.40;;
77870;SDS011;67067;46.850;7.578;2023-05-07T00:38:53;3.33;;;3.03;;
77870;SDS011;67067;46.850;7.578;2023-05-07T00:39:56;7.38;;;3.40;;
77870;SDS011;67067;46.850;7.578;2023-05-07T00:41:59;5.65;;;3.40;;
77870;SDS011;67067;46.850;7.578;2023-05-07T00:43:01;3.80;;;3.28;;
77870;SDS011;67067;46.850;7.578;2023-05-07T00:44:05;7.07;;;3.63;;
77870;SDS011;67067;46.850;7.578;2023-05-07T00:45:08;4.07;;;3.33;;
77870;SDS011;67067;46.850;7.578;2023-05-07T00:46:13;7.22;;;3.53;;
77870;SDS011;67067;46.850;7.578;2023-05-07T00:47:16;7.97;;;3.70;;
77870;SDS011;67067;46.850;7.578;2023-05-07T00:48:18;6.68;;;3.20;;
77870;SDS011;67067;46.850;7.578;2023-05-07T00:49:21;5.35;;;3.30;;
77870;SDS011;67067;46.850;7.578;2023-05-07T00:50:26;6.28;;;3.40;;
77870;SDS011;67067;46.850;7.578;2023-05-07T00:51:28;6.22;;;3.50;;
77870;SDS011;67067;46.850;7.578;2023-05-07T00:52:31;9.27;;;3.60;;
77870;SDS011;67067;46.850;7.578;2023-05-07T00:53:32;4.28;;;3.25;;
77870;SDS011;67067;46.850;7.578;2023-05-07T00:54:35;4.22;;;3.40;;
77870;SDS011;67067;46.850;7.578;2023-05-07T00:55:38;5.57;;;3.40;;
77870;SDS011;67067;46.850;7.578;2023-05-07T00:56:40;4.25;;;3.30;;
77870;SDS011;67067;46.850;7.578;2023-05-07T00:57:42;9.57;;;3.67;;
77870;SDS011;67067;46.850;7.578;2023-05-07T00:58:44;8.20;;;4.13;;
77870;SDS011;67067;46.850;7.578;2023-05-07T00:59:46;4.65;;;3.55;;
77870;SDS011;67067;46.850;7.578;2023-05-07T01:00:48;7.95;;;3.42;;
77870;SDS011;67067;46.850;7.578;2023-05-07T01:02:51;7.60;;;3.40;;
77870;SDS011;67067;46.850;7.578;2023-05-07T01:03:56;6.57;;;3.70;;
77870;SDS011;67067;46.850;7.578;2023-05-07T01:05:01;7.72;;;3.55;;
77870;SDS011;67067;46.850;7.578;2023-05-07T01:06:07;3.75;;;3.33;;
77870;SDS011;67067;46.850;7.578;2023-05-07T01:07:10;4.05;;;3.65;;
77870;SDS011;67067;46.850;7.578;2023-05-07T01:08:12;5.10;;;3.30;;
77870;SDS011;67067;46.850;7.578;2023-05-07T01:09:15;7.32;;;3.53;;
77870;SDS011;67067;46.850;7.578;2023-05-07T01:11:19;5.70;;;3.50;;
77870;SDS011;67067;46.850;7.578;2023-05-07T01:12:21;3.92;;;3.53;;
77870;SDS011;67067;46.850;7.578;2023-05-07T01:13:26;4.88;;;3.85;;
77870;SDS011;67067;46.850;7.578;2023-05-07T01:14:28;7.88;;;3.65;;
77870;SDS011;67067;46.850;7.578;2023-05-07T01:15:32;6.70;;;3.55;;
77870;SDS011;67067;46.850;7.578;2023-05-07T01:16:36;5.70;;;3.25;;
77870;SDS011;67067;46.850;7.578;2023-05-07T01:17:39;5.97;;;3.20;;
77870;SDS011;67067;46.850;7.578;2023-05-07T01:18:47;5.45;;;3.30;;
77870;SDS011;67067;46.850;7.578;2023-05-07T01:19:50;4.82;;;3.15;;
77870;SDS011;67067;46.850;7.578;2023-05-07T01:20:56;8.68;;;3.60;;
77870;SDS011;67067;46.850;7.578;2023-05-07T01:22:04;5.47;;;3.38;;
77870;SDS011;67067;46.850;7.578;2023-05-07T01:23:18;3.35;;;3.05;;
77870;SDS011;67067;46.850;7.578;2023-05-07T01:25:22;3.50;;;3.20;;
77870;SDS011;67067;46.850;7.578;2023-05-07T01:26:28;7.88;;;3.50;;
77870;SDS011;67067;46.850;7.578;2023-05-07T01:27:34;3.88;;;3.47;;
77870;SDS011;67067;46.850;7.578;2023-05-07T01:28:38;5.07;;;3.33;;
77870;SDS011;67067;46.850;7.578;2023-05-07T01:29:45;9.10;;;3.30;;
77870;SDS011;67067;46.850;7.578;2023-05-07T01:30:49;6.47;;;3.65;;
77870;SDS011;67067;46.850;7.578;2023-05-07T01:31:58;5.32;;;2.88;;
77870;SDS011;67067;46.850;7.578;2023-05-07T01:33:06;8.52;;;3.42;;
77870;SDS011;67067;46.850;7.578;2023-05-07T01:34:10;5.13;;;3.50;;
77870;SDS011;67067;46.850;7.578;2023-05-07T01:35:16;5.18;;;3.30;;
77870;SDS011;67067;46.850;7.578;2023-05-07T01:36:21;5.30;;;3.17;;
77870;SDS011;67067;46.850;7.578;2023-05-07T01:37:29;5.40;;;3.08;;
77870;SDS011;67067;46.850;7.578;2023-05-07T01:38:34;10.25;;;3.30;;
77870;SDS011;67067;46.850;7.578;2023-05-07T01:39:37;6.43;;;4.00;;
77870;SDS011;67067;46.850;7.578;2023-05-07T01:40:42;4.10;;;3.13;;
77870;SDS011;67067;46.850;7.578;2023-05-07T01:41:44;4.00;;;3.30;;
77870;SDS011;67067;46.850;7.578;2023-05-07T01:42:47;4.80;;;3.10;;
77870;SDS011;67067;46.850;7.578;2023-05-07T01:43:50;7.13;;;3.00;;
77870;SDS011;67067;46.850;7.578;2023-05-07T01:44:53;3.90;;;3.15;;
77870;SDS011;67067;46.850;7.578;2023-05-07T01:45:55;3.88;;;3.10;;
77870;SDS011;67067;46.850;7.578;2023-05-07T01:46:57;5.28;;;3.28;;
77870;SDS011;67067;46.850;7.578;2023-05-07T01:47:59;5.72;;;3.47;;
77870;SDS011;67067;46.850;7.578;2023-05-07T01:49:02;8.07;;;3.40;;
77870;SDS011;67067;46.850;7.578;2023-05-07T01:51:07;5.75;;;3.25;;
77870;SDS011;67067;46.850;7.578;2023-05-07T01:52:10;4.18;;;3.05;;
77870;SDS011;67067;46.850;7.578;2023-05-07T01:53:16;8.07;;;3.33;;
77870;SDS011;67067;46.850;7.578;2023-05-07T01:55:20;5.75;;;3.28;;
77870;SDS011;67067;46.850;7.578;2023-05-07T01:56:23;7.53;;;3.60;;
77870;SDS011;67067;46.850;7.578;2023-05-07T01:57:26;4.93;;;3.10;;
77870;SDS011;67067;46.850;7.578;2023-05-07T01:58:27;8.63;;;3.55;;
77870;SDS011;67067;46.850;7.578;2023-05-07T01:59:30;8.55;;;3.83;;
77870;SDS011;67067;46.850;7.578;2023-05-07T02:00:35;4.47;;;3.42;;
77870;SDS011;67067;46.850;7.578;2023-05-07T02:01:38;5.65;;;3.30;;
77870;SDS011;67067;46.850;7.578;2023-05-07T02:02:39;4.72;;;3.40;;
77870;SDS011;67067;46.850;7.578;2023-05-07T02:03:59;5.93;;;3.72;;
77870;SDS011;67067;46.850;7.578;2023-05-07T02:05:03;5.20;;;3.20;;
77870;SDS011;67067;46.850;7.578;2023-05-07T02:06:06;3.92;;;3.08;;
77870;SDS011;67067;46.850;7.578;2023-05-07T02:07:11;4.00;;;3.58;;
77870;SDS011;67067;46.850;7.578;2023-05-07T02:09:15;3.25;;;2.95;;
77870;SDS011;67067;46.850;7.578;2023-05-07T02:10:22;9.05;;;3.80;;
77870;SDS011;67067;46.850;7.578;2023-05-07T02:11:23;5.80;;;3.17;;
77870;SDS011;67067;46.850;7.578;2023-05-07T02:12:26;9.25;;;3.30;;
77870;SDS011;67067;46.850;7.578;2023-05-07T02:13:28;7.20;;;3.30;;
77870;SDS011;67067;46.850;7.578;2023-05-07T02:14:32;3.47;;;3.10;;
77870;SDS011;67067;46.850;7.578;2023-05-07T02:15:33;3.72;;;3.13;;
77870;SDS011;67067;46.850;7.578;2023-05-07T02:16:36;7.28;;;4.10;;
77870;SDS011;67067;46.850;7.578;2023-05-07T02:19:00;3.45;;;3.10;;
77870;SDS011;67067;46.850;7.578;2023-05-07T02:20:06;3.58;;;2.90;;
77870;SDS011;67067;46.850;7.578;2023-05-07T02:21:15;3.97;;;3.30;;
77870;SDS011;67067;46.850;7.578;2023-05-07T02:22:17;4.28;;;3.03;;
77870;SDS011;67067;46.850;7.578;2023-05-07T02:23:24;3.60;;;3.30;;
77870;SDS011;67067;46.850;7.578;2023-05-07T02:24:28;5.70;;;3.05;;
77870;SDS011;67067;46.850;7.578;2023-05-07T02:25:31;4.50;;;3.08;;
77870;SDS011;67067;46.850;7.578;2023-05-07T02:26:33;5.28;;;3.45;;
77870;SDS011;67067;46.850;7.578;2023-05-07T02:27:35;4.18;;;3.20;;
77870;SDS011;67067;46.850;7.578;2023-05-07T02:28:37;5.38;;;3.22;;
77870;SDS011;67067;46.850;7.578;2023-05-07T02:29:42;4.05;;;3.15;;
77870;SDS011;67067;46.850;7.578;2023-05-07T02:30:44;4.47;;;3.20;;
77870;SDS011;67067;46.850;7.578;2023-05-07T02:32:47;4.85;;;3.22;;
77870;SDS011;67067;46.850;7.578;2023-05-07T02:33:49;4.70;;;3.13;;
77870;SDS011;67067;46.850;7.578;2023-05-07T02:34:51;4.40;;;3.60;;
77870;SDS011;67067;46.850;7.578;2023-05-07T02:35:55;4.28;;;3.28;;
77870;SDS011;67067;46.850;7.578;2023-05-07T02:36:57;7.15;;;3.28;;
77870;SDS011;67067;46.850;7.578;2023-05-07T02:38:00;3.45;;;3.15;;
77870;SDS011;67067;46.850;7.578;2023-05-07T02:40:04;4.38;;;3.28;;
77870;SDS011;67067;46.850;7.578;2023-05-07T02:41:06;8.90;;;3.78;;
77870;SDS011;67067;46.850;7.578;2023-05-07T02:42:08;5.47;;;3.42;;
77870;SDS011;67067;46.850;7.578;2023-05-07T02:43:10;8.60;;;3.22;;
77870;SDS011;67067;46.850;7.578;2023-05-07T02:44:15;5.68;;;3.38;;
77870;SDS011;67067;46.850;7.578;2023-05-07T02:45:18;4.05;;;3.30;;
77870;SDS011;67067;46.850;7.578;2023-05-07T02:46:21;4.95;;;3.10;;
77870;SDS011;67067;46.850;7.578;2023-05-07T02:47:30;3.92;;;3.08;;
77870;SDS011;67067;46.850;7.578;2023-05-07T02:48:34;9.15;;;3.30;;
77870;SDS011;67067;46.850;7.578;2023-05-07T02:49:36;3.63;;;2.90;;
77870;SDS011;67067;46.850;7.578;2023-05-07T02:50:39;4.35;;;3.13;;
77870;SDS011;67067;46.850;7.578;2023-05-07T02:51:44;4.35;;;2.80;;
77870;SDS011;67067;46.850;7.578;2023-05-07T02:52:52;6.55;;;3.40;;
77870;SDS011;67067;46.850;7.578;2023-05-07T02:53:54;7.15;;;3.40;;
77870;SDS011;67067;46.850;7.578;2023-05-07T02:55:58;3.63;;;2.80;;
77870;SDS011;67067;46.850;7.578;2023-05-07T02:57:04;3.30;;;3.00;;
77870;SDS011;67067;46.850;7.578;2023-05-07T02:59:10;7.60;;;3.30;;
77870;SDS011;67067;46.850;7.578;2023-05-07T03:00:15;8.23;;;4.13;;
77870;SDS011;67067;46.850;7.578;2023-05-07T03:01:37;5.80;;;3.25;;
77870;SDS011;67067;46.850;7.578;2023-05-07T03:02:41;6.38;;;3.25;;
77870;SDS011;67067;46.850;7.578;2023-05-07T03:04:47;4.25;;;3.05;;
77870;SDS011;67067;46.850;7.578;2023-05-07T03:05:49;7.97;;;2.88;;
77870;SDS011;67067;46.850;7.578;2023-05-07T03:07:57;3.28;;;2.90;;
77870;SDS011;67067;46.850;7.578;2023-05-07T03:08:59;6.00;;;2.95;;
77870;SDS011;67067;46.850;7.578;2023-05-07T03:11:05;6.03;;;2.88;;
77870;SDS011;67067;46.850;7.578;2023-05-07T03:13:08;18.42;;;8.55;;
77870;SDS011;67067;46.850;7.578;2023-05-07T03:15:12;7.78;;;4.97;;
77870;SDS011;67067;46.850;7.578;2023-05-07T03:16:14;7.78;;;4.00;;
77870;SDS011;67067;46.850;7.578;2023-05-07T03:17:15;4.22;;;3.58;;
77870;SDS011;67067;46.850;7.578;2023-05-07T03:18:18;11.38;;;3.80;;
77870;SDS011;67067;46.850;7.578;2023-05-07T03:19:20;8.73;;;3.53;;
77870;SDS011;67067;46.850;7.578;2023-05-07T03:20:24;4.88;;;3.05;;
77870;SDS011;67067;46.850;7.578;2023-05-07T03:22:28;3.17;;;2.95;;
77870;SDS011;67067;46.850;7.578;2023-05-07T03:24:35;6.22;;;3.25;;
77870;SDS011;67067;46.850;7.578;2023-05-07T03:25:37;5.20;;;3.20;;
77870;SDS011;67067;46.850;7.578;2023-05-07T03:26:39;4.60;;;3.22;;
77870;SDS011;67067;46.850;7.578;2023-05-07T03:27:43;3.67;;;3.30;;
77870;SDS011;67067;46.850;7.578;2023-05-07T03:28:45;5.78;;;2.90;;
77870;SDS011;67067;46.850;7.578;2023-05-07T03:29:49;4.32;;;3.10;;
77870;SDS011;67067;46.850;7.578;2023-05-07T03:31:52;3.60;;;3.27;;
77870;SDS011;67067;46.850;7.578;2023-05-07T03:33:56;4.03;;;3.30;;
77870;SDS011;67067;46.850;7.578;2023-05-07T03:35:01;6.85;;;3.45;;
77870;SDS011;67067;46.850;7.578;2023-05-07T03:36:04;4.82;;;3.22;;
77870;SDS011;67067;46.850;7.578;2023-05-07T03:37:08;3.42;;;2.78;;
77870;SDS011;67067;46.850;7.578;2023-05-07T03:38:13;3.63;;;3.05;;
77870;SDS011;67067;46.850;7.578;2023-05-07T03:39:16;3.20;;;2.88;;
77870;SDS011;67067;46.850;7.578;2023-05-07T03:40:20;5.80;;;3.55;;
77870;SDS011;67067;46.850;7.578;2023-05-07T03:41:25;5.38;;;3.35;;
77870;SDS011;67067;46.850;7.578;2023-05-07T03:42:28;3.35;;;3.05;;
77870;SDS011;67067;46.850;7.578;2023-05-07T03:43:30;5.65;;;3.40;;
77870;SDS011;67067;46.850;7.578;2023-05-07T03:44:38;3.65;;;3.00;;
77870;SDS011;67067;46.850;7.578;2023-05-07T03:46:49;3.50;;;3.03;;
77870;SDS011;67067;46.850;7.578;2023-05-07T03:47:51;4.00;;;2.83;;
77870;SDS011;67067;46.850;7.578;2023-05-07T03:48:54;3.22;;;2.95;;
77870;SDS011;67067;46.850;7.578;2023-05-07T03:52:05;3.67;;;2.40;;
77870;SDS011;67067;46.850;7.578;2023-05-07T03:53:07;4.55;;;3.00;;
77870;SDS011;67067;46.850;7.578;2023-05-07T03:54:13;6.72;;;3.47;;
77870;SDS011;67067;46.850;7.578;2023-05-07T03:55:18;5.40;;;3.03;;
77870;SDS011;67067;46.850;7.578;2023-05-07T03:56:29;4.88;;;3.10;;
77870;SDS011;67067;46.850;7.578;2023-05-07T03:57:32;5.70;;;3.30;;
77870;SDS011;67067;46.850;7.578;2023-05-07T03:59:40;3.40;;;3.10;;
77870;SDS011;67067;46.850;7.578;2023-05-07T04:00:42;4.03;;;2.70;;
77870;SDS011;67067;46.850;7.578;2023-05-07T04:02:10;3.80;;;2.95;;
77870;SDS011;67067;46.850;7.578;2023-05-07T04:03:12;7.75;;;3.15;;
77870;SDS011;67067;46.850;7.578;2023-05-07T04:04:14;4.55;;;3.28;;
77870;SDS011;67067;46.850;7.578;2023-05-07T04:05:17;4.72;;;3.20;;
77870;SDS011;67067;46.850;7.578;2023-05-07T04:06:24;3.80;;;3.28;;
77870;SDS011;67067;46.850;7.578;2023-05-07T04:07:28;6.53;;;3.00;;
77870;SDS011;67067;46.850;7.578;2023-05-07T04:09:32;4.85;;;3.00;;
77870;SDS011;67067;46.850;7.578;2023-05-07T04:10:33;3.53;;;3.10;;
77870;SDS011;67067;46.850;7.578;2023-05-07T04:11:42;3.67;;;2.90;;
77870;SDS011;67067;46.850;7.578;2023-05-07T04:12:45;6.03;;;3.20;;
77870;SDS011;67067;46.850;7.578;2023-05-07T04:13:53;5.80;;;3.47;;
77870;SDS011;67067;46.850;7.578;2023-05-07T04:14:57;5.07;;;2.83;;
77870;SDS011;67067;46.850;7.578;2023-05-07T04:16:03;5.65;;;2.90;;
77870;SDS011;67067;46.850;7.578;2023-05-07T04:17:10;3.83;;;2.97;;
77870;SDS011;67067;46.850;7.578;2023-05-07T04:18:14;4.70;;;3.20;;
77870;SDS011;67067;46.850;7.578;2023-05-07T04:19:18;6.47;;;3.17;;
77870;SDS011;67067;46.850;7.578;2023-05-07T04:20:23;5.55;;;3.38;;
77870;SDS011;67067;46.850;7.578;2023-05-07T04:21:31;5.78;;;3.25;;
77870;SDS011;67067;46.850;7.578;2023-05-07T04:22:35;3.25;;;2.95;;
77870;SDS011;67067;46.850;7.578;2023-05-07T04:23:38;3.20;;;2.95;;
77870;SDS011;67067;46.850;7.578;2023-05-07T04:24:44;3.17;;;2.83;;
77870;SDS011;67067;46.850;7.578;2023-05-07T04:25:47;7.25;;;3.40;;
77870;SDS011;67067;46.850;7.578;2023-05-07T04:27:03;3.22;;;2.80;;
77870;SDS011;67067;46.850;7.578;2023-05-07T04:28:08;4.72;;;3.25;;
77870;SDS011;67067;46.850;7.578;2023-05-07T04:29:10;4.45;;;3.08;;
77870;SDS011;67067;46.850;7.578;2023-05-07T04:34:17;6.70;;;3.10;;
77870;SDS011;67067;46.850;7.578;2023-05-07T04:35:20;3.55;;;3.08;;
77870;SDS011;67067;46.850;7.578;2023-05-07T04:37:31;3.72;;;3.30;;
77870;SDS011;67067;46.850;7.578;2023-05-07T04:38:34;4.70;;;3.03;;
77870;SDS011;67067;46.850;7.578;2023-05-07T04:39:37;6.63;;;3.17;;
77870;SDS011;67067;46.850;7.578;2023-05-07T04:41:42;5.43;;;2.95;;
77870;SDS011;67067;46.850;7.578;2023-05-07T04:42:44;3.88;;;3.25;;
77870;SDS011;67067;46.850;7.578;2023-05-07T04:43:46;4.50;;;2.92;;
77870;SDS011;67067;46.850;7.578;2023-05-07T04:44:52;3.25;;;2.92;;
77870;SDS011;67067;46.850;7.578;2023-05-07T04:45:56;4.30;;;2.78;;
77870;SDS011;67067;46.850;7.578;2023-05-07T04:47:00;3.40;;;3.08;;
77870;SDS011;67067;46.850;7.578;2023-05-07T04:48:02;6.75;;;3.10;;
77870;SDS011;67067;46.850;7.578;2023-05-07T04:49:05;5.03;;;3.20;;
77870;SDS011;67067;46.850;7.578;2023-05-07T04:51:10;4.10;;;3.40;;
77870;SDS011;67067;46.850;7.578;2023-05-07T04:52:12;6.53;;;3.45;;
77870;SDS011;67067;46.850;7.578;2023-05-07T04:53:16;4.38;;;3.28;;
77870;SDS011;67067;46.850;7.578;2023-05-07T04:54:21;5.20;;;3.58;;
77870;SDS011;67067;46.850;7.578;2023-05-07T04:55:22;6.95;;;3.08;;
77870;SDS011;67067;46.850;7.578;2023-05-07T04:56:27;5.45;;;3.50;;
77870;SDS011;67067;46.850;7.578;2023-05-07T04:57:34;9.00;;;3.95;;
77870;SDS011;67067;46.850;7.578;2023-05-07T04:58:35;8.13;;;3.40;;
77870;SDS011;67067;46.850;7.578;2023-05-07T05:00:41;4.22;;;3.35;;
77870;SDS011;67067;46.850;7.578;2023-05-07T05:01:44;5.40;;;3.00;;
77870;SDS011;67067;46.850;7.578;2023-05-07T05:02:48;7.85;;;3.55;;
77870;SDS011;67067;46.850;7.578;2023-05-07T05:03:53;5.10;;;3.55;;
77870;SDS011;67067;46.850;7.578;2023-05-07T05:04:55;7.18;;;4.32;;
77870;SDS011;67067;46.850;7.578;2023-05-07T05:05:57;5.53;;;4.13;;
77870;SDS011;67067;46.850;7.578;2023-05-07T05:07:03;5.40;;;4.00;;
77870;SDS011;67067;46.850;7.578;2023-05-07T05:09:09;4.78;;;3.83;;
77870;SDS011;67067;46.850;7.578;2023-05-07T05:10:14;3.80;;;3.45;;
77870;SDS011;67067;46.850;7.578;2023-05-07T05:11:19;5.32;;;3.47;;
77870;SDS011;67067;46.850;7.578;2023-05-07T05:12:21;8.10;;;3.50;;
77870;SDS011;67067;46.850;7.578;2023-05-07T05:13:27;3.30;;;2.97;;
77870;SDS011;67067;46.850;7.578;2023-05-07T05:14:29;8.27;;;3.40;;
77870;SDS011;67067;46.850;7.578;2023-05-07T05:15:34;6.03;;;3.33;;
77870;SDS011;67067;46.850;7.578;2023-05-07T05:16:36;5.00;;;3.60;;
77870;SDS011;67067;46.850;7.578;2023-05-07T05:17:39;4.03;;;3.50;;
77870;SDS011;67067;46.850;7.578;2023-05-07T05:18:41;5.43;;;3.22;;
77870;SDS011;67067;46.850;7.578;2023-05-07T05:19:47;7.07;;;3.53;;
77870;SDS011;67067;46.850;7.578;2023-05-07T05:20:50;3.47;;;3.17;;
77870;SDS011;67067;46.850;7.578;2023-05-07T05:21:52;4.88;;;3.53;;
77870;SDS011;67067;46.850;7.578;2023-05-07T05:23:55;3.50;;;3.20;;
77870;SDS011;67067;46.850;7.578;2023-05-07T05:24:59;9.73;;;3.42;;
77870;SDS011;67067;46.850;7.578;2023-05-07T05:26:01;4.00;;;3.30;;
77870;SDS011;67067;46.850;7.578;2023-05-07T05:27:06;4.53;;;3.20;;
77870;SDS011;67067;46.850;7.578;2023-05-07T05:28:08;4.65;;;2.97;;
77870;SDS011;67067;46.850;7.578;2023-05-07T05:29:09;4.15;;;3.40;;
77870;SDS011;67067;46.850;7.578;2023-05-07T05:30:14;5.97;;;3.47;;
77870;SDS011;67067;46.850;7.578;2023-05-07T05:31:18;5.15;;;3.38;;
77870;SDS011;67067;46.850;7.578;2023-05-07T05:32:21;5.50;;;3.47;;
77870;SDS011;67067;46.850;7.578;2023-05-07T05:33:24;8.63;;;3.30;;
77870;SDS011;67067;46.850;7.578;2023-05-07T05:34:27;5.00;;;3.40;;
77870;SDS011;67067;46.850;7.578;2023-05-07T05:35:29;5.15;;;3.03;;
77870;SDS011;67067;46.850;7.578;2023-05-07T05:36:37;6.15;;;3.15;;
77870;SDS011;67067;46.850;7.578;2023-05-07T05:37:41;5.65;;;2.92;;
77870;SDS011;67067;46.850;7.578;2023-05-07T05:38:45;4.57;;;3.15;;
77870;SDS011;67067;46.850;7.578;2023-05-07T05:39:48;5.05;;;3.13;;
77870;SDS011;67067;46.850;7.578;2023-05-07T05:40:50;3.53;;;3.20;;
77870;SDS011;67067;46.850;7.578;2023-05-07T05:41:52;5.60;;;3.45;;
77870;SDS011;67067;46.850;7.578;2023-05-07T05:42:58;5.75;;;3.40;;
77870;SDS011;67067;46.850;7.578;2023-05-07T05:44:00;8.90;;;2.97;;
77870;SDS011;67067;46.850;7.578;2023-05-07T05:45:02;3.75;;;2.90;;
77870;SDS011;67067;46.850;7.578;2023-05-07T05:46:07;5.63;;;2.70;;
77870;SDS011;67067;46.850;7.578;2023-05-07T05:47:13;8.73;;;3.25;;
77870;SDS011;67067;46.850;7.578;2023-05-07T05:48:18;5.00;;;3.00;;
77870;SDS011;67067;46.850;7.578;2023-05-07T05:49:21;4.97;;;3.15;;
77870;SDS011;67067;46.850;7.578;2023-05-07T05:50:23;6.20;;;3.13;;
77870;SDS011;67067;46.850;7.578;2023-05-07T05:51:26;4.38;;;3.17;;
77870;SDS011;67067;46.850;7.578;2023-05-07T05:52:28;5.30;;;3.10;;
77870;SDS011;67067;46.850;7.578;2023-05-07T05:53:30;6.10;;;3.63;;
77870;SDS011;67067;46.850;7.578;2023-05-07T05:55:33;2.87;;;2.67;;
77870;SDS011;67067;46.850;7.578;2023-05-07T05:56:38;5.60;;;3.95;;
77870;SDS011;67067;46.850;7.578;2023-05-07T05:57:39;4.40;;;3.50;;
77870;SDS011;67067;46.850;7.578;2023-05-07T05:58:42;3.42;;;3.13;;
77870;SDS011;67067;46.850;7.578;2023-05-07T06:01:49;3.85;;;3.30;;
77870;SDS011;67067;46.850;7.578;2023-05-07T06:02:51;4.85;;;3.40;;
77870;SDS011;67067;46.850;7.578;2023-05-07T06:03:57;5.35;;;3.28;;
77870;SDS011;67067;46.850;7.578;2023-05-07T06:04:59;5.93;;;3.30;;
77870;SDS011;67067;46.850;7.578;2023-05-07T06:06:01;3.47;;;3.17;;
77870;SDS011;67067;46.850;7.578;2023-05-07T06:07:03;7.95;;;3.20;;
77870;SDS011;67067;46.850;7.578;2023-05-07T06:08:04;6.80;;;3.40;;
77870;SDS011;67067;46.850;7.578;2023-05-07T06:09:09;6.32;;;3.80;;
77870;SDS011;67067;46.850;7.578;2023-05-07T06:10:15;7.43;;;3.30;;
77870;SDS011;67067;46.850;7.578;2023-05-07T06:11:19;6.13;;;3.47;;
77870;SDS011;67067;46.850;7.578;2023-05-07T06:12:23;6.43;;;2.90;;
77870;SDS011;67067;46.850;7.578;2023-05-07T06:13:27;6.18;;;3.58;;
77870;SDS011;67067;46.850;7.578;2023-05-07T06:14:30;6.18;;;3.55;;
77870;SDS011;67067;46.850;7.578;2023-05-07T06:15:34;6.88;;;3.08;;
77870;SDS011;67067;46.850;7.578;2023-05-07T06:16:41;5.85;;;3.40;;
77870;SDS011;67067;46.850;7.578;2023-05-07T06:17:45;5.63;;;3.30;;
77870;SDS011;67067;46.850;7.578;2023-05-07T06:19:50;6.35;;;3.63;;
77870;SDS011;67067;46.850;7.578;2023-05-07T06:20:55;6.82;;;3.38;;
77870;SDS011;67067;46.850;7.578;2023-05-07T06:22:01;5.63;;;3.30;;
77870;SDS011;67067;46.850;7.578;2023-05-07T06:23:07;5.45;;;3.08;;
77870;SDS011;67067;46.850;7.578;2023-05-07T06:24:09;5.85;;;3.40;;
77870;SDS011;67067;46.850;7.578;2023-05-07T06:25:12;6.90;;;3.40;;
77870;SDS011;67067;46.850;7.578;2023-05-07T06:26:16;7.85;;;3.38;;
77870;SDS011;67067;46.850;7.578;2023-05-07T06:27:20;6.13;;;3.30;;
77870;SDS011;67067;46.850;7.578;2023-05-07T06:28:22;6.00;;;3.38;;
77870;SDS011;67067;46.850;7.578;2023-05-07T06:29:25;4.15;;;3.38;;
77870;SDS011;67067;46.850;7.578;2023-05-07T06:30:27;6.93;;;3.15;;
77870;SDS011;67067;46.850;7.578;2023-05-07T06:31:30;6.90;;;3.20;;
77870;SDS011;67067;46.850;7.578;2023-05-07T06:32:40;4.28;;;3.20;;
77870;SDS011;67067;46.850;7.578;2023-05-07T06:33:44;4.00;;;2.80;;
77870;SDS011;67067;46.850;7.578;2023-05-07T06:34:48;3.17;;;2.88;;
77870;SDS011;67067;46.850;7.578;2023-05-07T06:35:50;4.70;;;2.70;;
77870;SDS011;67067;46.850;7.578;2023-05-07T06:38:03;5.93;;;3.20;;
77870;SDS011;67067;46.850;7.578;2023-05-07T06:39:05;4.22;;;3.30;;
77870;SDS011;67067;46.850;7.578;2023-05-07T06:40:10;6.30;;;3.33;;
77870;SDS011;67067;46.850;7.578;2023-05-07T06:41:16;8.85;;;4.07;;
77870;SDS011;67067;46.850;7.578;2023-05-07T06:43:21;6.97;;;3.90;;
77870;SDS011;67067;46.850;7.578;2023-05-07T06:44:46;3.50;;;3.20;;
77870;SDS011;67067;46.850;7.578;2023-05-07T06:45:50;7.03;;;3.13;;
77870;SDS011;67067;46.850;7.578;2023-05-07T06:47:53;3.30;;;3.00;;
77870;SDS011;67067;46.850;7.578;2023-05-07T06:48:56;5.20;;;3.10;;
77870;SDS011;67067;46.850;7.578;2023-05-07T06:49:59;6.13;;;2.90;;
77870;SDS011;67067;46.850;7.578;2023-05-07T06:51:04;5.80;;;2.67;;
77870;SDS011;67067;46.850;7.578;2023-05-07T06:52:08;6.22;;;2.50;;
77870;SDS011;67067;46.850;7.578;2023-05-07T06:54:12;4.85;;;3.10;;
77870;SDS011;67067;46.850;7.578;2023-05-07T06:55:18;3.58;;;2.80;;
77870;SDS011;67067;46.850;7.578;2023-05-07T06:56:20;3.75;;;3.25;;
77870;SDS011;67067;46.850;7.578;2023-05-07T06:57:23;5.72;;;2.80;;
77870;SDS011;67067;46.850;7.578;2023-05-07T06:58:25;4.95;;;3.08;;
77870;SDS011;67067;46.850;7.578;2023-05-07T06:59:27;3.72;;;2.67;;
77870;SDS011;67067;46.850;7.578;2023-05-07T07:02:37;4.60;;;2.80;;
77870;SDS011;67067;46.850;7.578;2023-05-07T07:03:39;5.28;;;2.65;;
77870;SDS011;67067;46.850;7.578;2023-05-07T07:04:43;4.22;;;2.63;;
77870;SDS011;67067;46.850;7.578;2023-05-07T07:05:46;2.78;;;2.58;;
77870;SDS011;67067;46.850;7.578;2023-05-07T07:07:51;4.72;;;3.10;;
77870;SDS011;67067;46.850;7.578;2023-05-07T07:08:58;3.90;;;2.78;;
77870;SDS011;67067;46.850;7.578;2023-05-07T07:10:01;4.07;;;2.90;;
77870;SDS011;67067;46.850;7.578;2023-05-07T07:11:05;4.32;;;2.88;;
77870;SDS011;67067;46.850;7.578;2023-05-07T07:12:08;7.28;;;2.72;;
77870;SDS011;67067;46.850;7.578;2023-05-07T07:13:14;4.95;;;2.78;;
77870;SDS011;67067;46.850;7.578;2023-05-07T07:15:25;3.45;;;3.15;;
77870;SDS011;67067;46.850;7.578;2023-05-07T07:16:29;4.75;;;3.15;;
77870;SDS011;67067;46.850;7.578;2023-05-07T07:17:33;6.47;;;3.13;;
77870;SDS011;67067;46.850;7.578;2023-05-07T07:18:37;5.38;;;3.00;;
77870;SDS011;67067;46.850;7.578;2023-05-07T07:19:39;5.60;;;3.40;;
77870;SDS011;67067;46.850;7.578;2023-05-07T07:20:41;3.20;;;2.90;;
77870;SDS011;67067;46.850;7.578;2023-05-07T07:21:45;7.13;;;3.35;;